Cotes De Bretagne — FW3973 — position and weather

sailwx.info

Track history (hours):
 
Tides and Currents Weather Stations Pressure Air Temp Water Temp Dewpoint Dewpoint Depression Visibility Wind Speed Wind Dir Waves Ship Positions

Cotes De Bretagne

Last reported at 2014-Aug-27 23:26 UTC. Time now 2014-Aug-28 09:27 UTC.
Position N 47°19' W 002°58'.

Length 75 m; draft 2.5 m.

Type: Dredging. MMSI: 227003850.

Date/timePositionNaut miles runAvg speedWind from/ knotsBaromVisibWave heightAir tempDewpointWater temp
2014-Aug-27 23:26N 47°19' W 002°58'29 9.9
2014-Aug-27 20:33N 47°35' W 003°33'2110.5
2014-Aug-27 18:33N 47°47' W 003°59'9 9.4
2014-Aug-27 17:33N 47°54' W 004°09'5 2.3
2014-Aug-27 15:33N 47°58' W 004°06'5 5.5
2014-Aug-27 14:33N 47°53' W 004°07'3 3.0
2014-Aug-27 13:33N 47°50' W 004°06'18 9.1
2014-Aug-27 11:33N 47°40' W 003°43'10 9.7
2014-Aug-27 10:33N 47°34' W 003°32'9 9.2
2014-Aug-27 09:34N 47°28' W 003°21'1310.1
2014-Aug-27 08:13N 47°21' W 003°04'3 0.3
2014-Aug-26 22:32N 47°20' W 003°00'5110.3
2014-Aug-26 17:33N 47°49' W 004°03'10 0.9
2014-Aug-26 06:33N 47°58' W 004°06'5 0.3
2014-Aug-25 14:33N 47°53' W 004°07'27 8.4
2014-Aug-25 11:18N 47°37' W 003°35'26 1.9
2014-Aug-24 21:33N 47°22' W 003°04'2310.5
2014-Aug-24 19:24N 47°34' W 003°32'3010.5
2014-Aug-24 16:34N 47°52' W 004°07'6 6.1
2014-Aug-24 15:33N 47°58' W 004°06'3 1.5
2014-Aug-24 13:33N 47°56' W 004°08'5 5.3
2014-Aug-24 12:33N 47°50' W 004°07'0 0.0
2014-Aug-24 03:33N 47°50' W 004°06'0 0.0
2014-Aug-23 23:33N 47°50' W 004°06'  
Track history (hours):
 
Tides and Currents Weather Stations Pressure Air Temp Water Temp Dewpoint Dewpoint Depression Visibility Wind Speed Wind Dir Waves Ship Positions

Cotes De Bretagne

Last reported at 2014-Aug-27 23:26 UTC. Time now 2014-Aug-28 09:27 UTC.
Position N 47°19' W 002°58'.

Length 75 m; draft 2.5 m.

Type: Dredging. MMSI: 227003850.

Date/timePositionNaut miles runAvg speedWind from/ knotsBaromVisibWave heightAir tempDewpointWater temp
2014-Aug-27 23:26N 47°19' W 002°58'29 9.9
2014-Aug-27 20:33N 47°35' W 003°33'2110.5
2014-Aug-27 18:33N 47°47' W 003°59'9 9.4
2014-Aug-27 17:33N 47°54' W 004°09'5 2.3
2014-Aug-27 15:33N 47°58' W 004°06'5 5.5
2014-Aug-27 14:33N 47°53' W 004°07'3 3.0
2014-Aug-27 13:33N 47°50' W 004°06'18 9.1
2014-Aug-27 11:33N 47°40' W 003°43'10 9.7
2014-Aug-27 10:33N 47°34' W 003°32'9 9.2
2014-Aug-27 09:34N 47°28' W 003°21'1310.1
2014-Aug-27 08:13N 47°21' W 003°04'3 0.3
2014-Aug-26 22:32N 47°20' W 003°00'5110.3
2014-Aug-26 17:33N 47°49' W 004°03'10 0.9
2014-Aug-26 06:33N 47°58' W 004°06'5 0.3
2014-Aug-25 14:33N 47°53' W 004°07'27 8.4
2014-Aug-25 11:18N 47°37' W 003°35'26 1.9
2014-Aug-24 21:33N 47°22' W 003°04'2310.5
2014-Aug-24 19:24N 47°34' W 003°32'3010.5
2014-Aug-24 16:34N 47°52' W 004°07'6 6.1
2014-Aug-24 15:33N 47°58' W 004°06'3 1.5
2014-Aug-24 13:33N 47°56' W 004°08'5 5.3
2014-Aug-24 12:33N 47°50' W 004°07'0 0.0
2014-Aug-24 03:33N 47°50' W 004°06'0 0.0
2014-Aug-23 23:33N 47°50' W 004°06'  

Dump ship's entire track history